sensor_id;sensor_type;location;lat;lon;timestamp;temperature;humidity
12682;DHT22;6405;59.208;18.216;2024-02-23T00:01:50;3.10;99.90
12682;DHT22;6405;59.208;18.216;2024-02-23T00:04:16;3.10;99.90
12682;DHT22;6405;59.208;18.216;2024-02-23T00:06:44;3.20;99.90
12682;DHT22;6405;59.208;18.216;2024-02-23T00:09:10;3.10;99.90
12682;DHT22;6405;59.208;18.216;2024-02-23T00:11:38;3.10;99.90
12682;DHT22;6405;59.208;18.216;2024-02-23T00:14:06;3.40;99.90
12682;DHT22;6405;59.208;18.216;2024-02-23T00:16:38;3.20;99.90
12682;DHT22;6405;59.208;18.216;2024-02-23T00:19:04;3.10;99.90
12682;DHT22;6405;59.208;18.216;2024-02-23T00:21:30;3.10;99.90
12682;DHT22;6405;59.208;18.216;2024-02-23T00:23:55;3.10;99.90
12682;DHT22;6405;59.208;18.216;2024-02-23T00:26:21;3.10;99.90
12682;DHT22;6405;59.208;18.216;2024-02-23T00:28:47;3.10;99.90
12682;DHT22;6405;59.208;18.216;2024-02-23T00:31:12;3.20;99.90
12682;DHT22;6405;59.208;18.216;2024-02-23T00:33:38;3.10;99.90
12682;DHT22;6405;59.208;18.216;2024-02-23T00:36:07;3.10;99.90
12682;DHT22;6405;59.208;18.216;2024-02-23T00:38:33;3.10;99.90
12682;DHT22;6405;59.208;18.216;2024-02-23T00:40:59;3.20;99.90
12682;DHT22;6405;59.208;18.216;2024-02-23T00:43:25;3.20;99.90
12682;DHT22;6405;59.208;18.216;2024-02-23T00:45:50;3.20;99.90
12682;DHT22;6405;59.208;18.216;2024-02-23T00:48:16;3.20;99.90
12682;DHT22;6405;59.208;18.216;2024-02-23T00:50:42;3.20;99.90
12682;DHT22;6405;59.208;18.216;2024-02-23T00:53:08;3.20;99.90
12682;DHT22;6405;59.208;18.216;2024-02-23T00:55:34;3.20;99.90
12682;DHT22;6405;59.208;18.216;2024-02-23T00:58:00;3.20;99.90
12682;DHT22;6405;59.208;18.216;2024-02-23T01:00:25;3.20;99.90
12682;DHT22;6405;59.208;18.216;2024-02-23T01:02:51;3.20;99.90
12682;DHT22;6405;59.208;18.216;2024-02-23T01:05:17;3.30;99.90
12682;DHT22;6405;59.208;18.216;2024-02-23T01:07:43;3.20;99.90
12682;DHT22;6405;59.208;18.216;2024-02-23T01:10:08;3.20;99.90
12682;DHT22;6405;59.208;18.216;2024-02-23T01:12:35;3.30;99.90
12682;DHT22;6405;59.208;18.216;2024-02-23T01:15:01;3.20;99.90
12682;DHT22;6405;59.208;18.216;2024-02-23T01:17:26;3.20;99.90
12682;DHT22;6405;59.208;18.216;2024-02-23T01:19:52;3.20;99.90
12682;DHT22;6405;59.208;18.216;2024-02-23T01:22:18;3.20;99.90
12682;DHT22;6405;59.208;18.216;2024-02-23T01:24:44;3.30;99.90
12682;DHT22;6405;59.208;18.216;2024-02-23T01:27:09;3.30;99.90
12682;DHT22;6405;59.208;18.216;2024-02-23T01:29:35;3.30;99.90
12682;DHT22;6405;59.208;18.216;2024-02-23T01:32:01;3.30;99.90
12682;DHT22;6405;59.208;18.216;2024-02-23T01:34:27;3.20;99.90
12682;DHT22;6405;59.208;18.216;2024-02-23T01:36:52;3.30;99.90
12682;DHT22;6405;59.208;18.216;2024-02-23T01:39:18;3.20;99.90
12682;DHT22;6405;59.208;18.216;2024-02-23T01:41:44;3.30;99.90
12682;DHT22;6405;59.208;18.216;2024-02-23T01:44:10;3.20;99.90
12682;DHT22;6405;59.208;18.216;2024-02-23T01:46:37;3.20;99.90
12682;DHT22;6405;59.208;18.216;2024-02-23T01:49:03;3.30;99.90
12682;DHT22;6405;59.208;18.216;2024-02-23T01:51:31;3.30;99.90
12682;DHT22;6405;59.208;18.216;2024-02-23T01:53:58;3.20;99.90
12682;DHT22;6405;59.208;18.216;2024-02-23T01:56:23;3.20;99.90
12682;DHT22;6405;59.208;18.216;2024-02-23T01:58:49;3.20;99.90
12682;DHT22;6405;59.208;18.216;2024-02-23T02:01:15;3.30;99.90
12682;DHT22;6405;59.208;18.216;2024-02-23T02:03:41;3.30;99.90
12682;DHT22;6405;59.208;18.216;2024-02-23T02:06:07;3.20;99.90
12682;DHT22;6405;59.208;18.216;2024-02-23T02:08:34;3.40;99.90
12682;DHT22;6405;59.208;18.216;2024-02-23T02:11:00;3.40;99.90
12682;DHT22;6405;59.208;18.216;2024-02-23T02:13:28;3.40;99.90
12682;DHT22;6405;59.208;18.216;2024-02-23T02:15:54;3.40;99.90
12682;DHT22;6405;59.208;18.216;2024-02-23T02:18:20;3.60;99.90
12682;DHT22;6405;59.208;18.216;2024-02-23T02:20:52;3.30;99.90
12682;DHT22;6405;59.208;18.216;2024-02-23T02:23:19;3.30;99.90
12682;DHT22;6405;59.208;18.216;2024-02-23T02:25:44;3.40;99.90
12682;DHT22;6405;59.208;18.216;2024-02-23T02:28:10;3.30;99.90
12682;DHT22;6405;59.208;18.216;2024-02-23T02:30:37;3.40;99.90
12682;DHT22;6405;59.208;18.216;2024-02-23T02:33:03;3.40;99.90
12682;DHT22;6405;59.208;18.216;2024-02-23T02:35:29;3.40;99.90
12682;DHT22;6405;59.208;18.216;2024-02-23T02:37:55;3.40;99.90
12682;DHT22;6405;59.208;18.216;2024-02-23T02:40:21;3.40;99.90
12682;DHT22;6405;59.208;18.216;2024-02-23T02:42:46;3.40;99.90
12682;DHT22;6405;59.208;18.216;2024-02-23T02:45:12;3.50;99.90
12682;DHT22;6405;59.208;18.216;2024-02-23T02:47:38;3.40;99.90
12682;DHT22;6405;59.208;18.216;2024-02-23T02:50:04;3.40;99.90
12682;DHT22;6405;59.208;18.216;2024-02-23T02:52:32;3.40;99.90
12682;DHT22;6405;59.208;18.216;2024-02-23T02:54:58;3.50;99.90
12682;DHT22;6405;59.208;18.216;2024-02-23T02:57:23;3.40;99.90
12682;DHT22;6405;59.208;18.216;2024-02-23T02:59:49;3.60;99.90
12682;DHT22;6405;59.208;18.216;2024-02-23T03:02:15;3.40;99.90
12682;DHT22;6405;59.208;18.216;2024-02-23T03:04:50;3.40;99.90
12682;DHT22;6405;59.208;18.216;2024-02-23T03:07:17;3.70;99.90
12682;DHT22;6405;59.208;18.216;2024-02-23T03:09:43;3.40;99.90
12682;DHT22;6405;59.208;18.216;2024-02-23T03:12:10;3.40;99.90
12682;DHT22;6405;59.208;18.216;2024-02-23T03:14:35;3.40;99.90
12682;DHT22;6405;59.208;18.216;2024-02-23T03:17:07;3.40;99.90
12682;DHT22;6405;59.208;18.216;2024-02-23T03:19:33;3.50;99.90
12682;DHT22;6405;59.208;18.216;2024-02-23T03:21:59;3.50;99.90
12682;DHT22;6405;59.208;18.216;2024-02-23T03:24:24;3.50;99.90
12682;DHT22;6405;59.208;18.216;2024-02-23T03:26:50;3.50;99.90
12682;DHT22;6405;59.208;18.216;2024-02-23T03:29:16;3.50;99.90
12682;DHT22;6405;59.208;18.216;2024-02-23T03:31:41;3.50;99.90
12682;DHT22;6405;59.208;18.216;2024-02-23T03:34:07;3.50;99.90
12682;DHT22;6405;59.208;18.216;2024-02-23T03:36:34;3.70;99.90
12682;DHT22;6405;59.208;18.216;2024-02-23T03:39:00;3.50;99.90
12682;DHT22;6405;59.208;18.216;2024-02-23T03:41:26;3.50;99.90
12682;DHT22;6405;59.208;18.216;2024-02-23T03:43:52;3.50;99.90
12682;DHT22;6405;59.208;18.216;2024-02-23T03:46:40;3.50;99.90
12682;DHT22;6405;59.208;18.216;2024-02-23T03:49:06;3.50;99.90
12682;DHT22;6405;59.208;18.216;2024-02-23T03:51:31;3.50;99.90
12682;DHT22;6405;59.208;18.216;2024-02-23T03:54:02;3.50;99.90
12682;DHT22;6405;59.208;18.216;2024-02-23T03:56:28;3.50;99.90
12682;DHT22;6405;59.208;18.216;2024-02-23T03:58:54;3.50;99.90
12682;DHT22;6405;59.208;18.216;2024-02-23T04:01:20;3.50;99.90
12682;DHT22;6405;59.208;18.216;2024-02-23T04:04:08;3.60;99.90
12682;DHT22;6405;59.208;18.216;2024-02-23T04:06:35;3.60;99.90
12682;DHT22;6405;59.208;18.216;2024-02-23T04:09:01;3.60;99.90
12682;DHT22;6405;59.208;18.216;2024-02-23T04:11:30;3.60;99.90
12682;DHT22;6405;59.208;18.216;2024-02-23T04:13:56;3.80;99.90
12682;DHT22;6405;59.208;18.216;2024-02-23T04:16:25;3.60;99.90
12682;DHT22;6405;59.208;18.216;2024-02-23T04:18:51;3.60;99.90
12682;DHT22;6405;59.208;18.216;2024-02-23T04:21:17;3.60;99.90
12682;DHT22;6405;59.208;18.216;2024-02-23T04:23:45;3.60;99.90
12682;DHT22;6405;59.208;18.216;2024-02-23T04:26:11;3.60;99.90
12682;DHT22;6405;59.208;18.216;2024-02-23T04:28:40;3.80;99.90
12682;DHT22;6405;59.208;18.216;2024-02-23T04:31:08;3.80;99.90
12682;DHT22;6405;59.208;18.216;2024-02-23T04:33:34;3.60;99.90
12682;DHT22;6405;59.208;18.216;2024-02-23T04:36:01;3.60;99.90
12682;DHT22;6405;59.208;18.216;2024-02-23T04:38:27;3.50;99.90
12682;DHT22;6405;59.208;18.216;2024-02-23T04:40:53;3.70;99.90
12682;DHT22;6405;59.208;18.216;2024-02-23T04:43:18;3.80;99.90
12682;DHT22;6405;59.208;18.216;2024-02-23T04:45:44;3.60;99.90
12682;DHT22;6405;59.208;18.216;2024-02-23T04:48:10;3.60;99.90
12682;DHT22;6405;59.208;18.216;2024-02-23T04:50:35;3.60;99.90
12682;DHT22;6405;59.208;18.216;2024-02-23T04:53:01;3.60;99.90
12682;DHT22;6405;59.208;18.216;2024-02-23T04:55:27;3.50;99.90
12682;DHT22;6405;59.208;18.216;2024-02-23T04:57:53;3.60;99.90
12682;DHT22;6405;59.208;18.216;2024-02-23T05:00:19;3.80;99.90
12682;DHT22;6405;59.208;18.216;2024-02-23T05:02:45;3.60;99.90
12682;DHT22;6405;59.208;18.216;2024-02-23T05:05:11;3.60;99.90
12682;DHT22;6405;59.208;18.216;2024-02-23T05:07:38;3.60;99.90
12682;DHT22;6405;59.208;18.216;2024-02-23T05:10:04;3.80;99.90
12682;DHT22;6405;59.208;18.216;2024-02-23T05:12:30;3.60;99.90
12682;DHT22;6405;59.208;18.216;2024-02-23T05:14:56;3.80;99.90
12682;DHT22;6405;59.208;18.216;2024-02-23T05:17:21;3.60;99.90
12682;DHT22;6405;59.208;18.216;2024-02-23T05:19:48;3.60;99.90
12682;DHT22;6405;59.208;18.216;2024-02-23T05:22:14;3.50;99.90
12682;DHT22;6405;59.208;18.216;2024-02-23T05:24:40;3.60;99.90
12682;DHT22;6405;59.208;18.216;2024-02-23T05:27:05;3.60;99.90
12682;DHT22;6405;59.208;18.216;2024-02-23T05:29:31;3.70;99.90
12682;DHT22;6405;59.208;18.216;2024-02-23T05:31:57;3.60;99.90
12682;DHT22;6405;59.208;18.216;2024-02-23T05:34:23;3.60;99.90
12682;DHT22;6405;59.208;18.216;2024-02-23T05:36:48;3.50;99.90
12682;DHT22;6405;59.208;18.216;2024-02-23T05:39:16;3.50;99.90
12682;DHT22;6405;59.208;18.216;2024-02-23T05:41:43;3.60;99.90
12682;DHT22;6405;59.208;18.216;2024-02-23T05:44:09;3.60;99.90
12682;DHT22;6405;59.208;18.216;2024-02-23T05:46:36;3.60;99.90
12682;DHT22;6405;59.208;18.216;2024-02-23T05:49:02;3.60;99.90
12682;DHT22;6405;59.208;18.216;2024-02-23T05:51:30;3.60;99.90
12682;DHT22;6405;59.208;18.216;2024-02-23T05:53:56;3.60;99.90
12682;DHT22;6405;59.208;18.216;2024-02-23T05:56:22;3.60;99.90
12682;DHT22;6405;59.208;18.216;2024-02-23T05:58:50;3.60;99.90
12682;DHT22;6405;59.208;18.216;2024-02-23T06:01:16;3.60;99.90
12682;DHT22;6405;59.208;18.216;2024-02-23T06:03:42;3.50;99.90
12682;DHT22;6405;59.208;18.216;2024-02-23T06:06:08;3.50;99.90
12682;DHT22;6405;59.208;18.216;2024-02-23T06:08:34;3.50;99.90
12682;DHT22;6405;59.208;18.216;2024-02-23T06:11:00;3.50;99.90
12682;DHT22;6405;59.208;18.216;2024-02-23T06:13:26;3.60;99.90
12682;DHT22;6405;59.208;18.216;2024-02-23T06:15:52;3.50;99.90
12682;DHT22;6405;59.208;18.216;2024-02-23T06:18:17;3.60;99.90
12682;DHT22;6405;59.208;18.216;2024-02-23T06:20:43;3.60;99.90
12682;DHT22;6405;59.208;18.216;2024-02-23T06:23:09;3.50;99.90
12682;DHT22;6405;59.208;18.216;2024-02-23T06:25:34;3.50;99.90
12682;DHT22;6405;59.208;18.216;2024-02-23T06:28:00;3.60;99.90
12682;DHT22;6405;59.208;18.216;2024-02-23T06:30:26;3.60;99.90
12682;DHT22;6405;59.208;18.216;2024-02-23T06:32:52;3.70;99.90
12682;DHT22;6405;59.208;18.216;2024-02-23T06:35:17;3.60;99.90
12682;DHT22;6405;59.208;18.216;2024-02-23T06:37:43;3.60;99.90
12682;DHT22;6405;59.208;18.216;2024-02-23T06:40:09;3.80;99.90
12682;DHT22;6405;59.208;18.216;2024-02-23T06:42:35;3.60;99.90
12682;DHT22;6405;59.208;18.216;2024-02-23T06:45:01;3.60;99.90
12682;DHT22;6405;59.208;18.216;2024-02-23T06:47:27;3.70;99.90
12682;DHT22;6405;59.208;18.216;2024-02-23T06:49:52;3.60;99.90
12682;DHT22;6405;59.208;18.216;2024-02-23T06:52:18;3.60;99.90
12682;DHT22;6405;59.208;18.216;2024-02-23T06:54:44;3.70;99.90
12682;DHT22;6405;59.208;18.216;2024-02-23T06:57:10;3.70;99.90
12682;DHT22;6405;59.208;18.216;2024-02-23T06:59:36;3.80;99.90
12682;DHT22;6405;59.208;18.216;2024-02-23T07:02:02;3.70;99.90
12682;DHT22;6405;59.208;18.216;2024-02-23T07:04:28;3.90;99.90
12682;DHT22;6405;59.208;18.216;2024-02-23T07:06:55;3.80;99.90
12682;DHT22;6405;59.208;18.216;2024-02-23T07:09:21;3.90;99.90
12682;DHT22;6405;59.208;18.216;2024-02-23T07:11:46;3.70;99.90
12682;DHT22;6405;59.208;18.216;2024-02-23T07:14:12;3.70;99.90
12682;DHT22;6405;59.208;18.216;2024-02-23T07:16:40;3.70;99.90
12682;DHT22;6405;59.208;18.216;2024-02-23T07:19:06;3.90;99.90
12682;DHT22;6405;59.208;18.216;2024-02-23T07:21:33;3.70;99.90
12682;DHT22;6405;59.208;18.216;2024-02-23T07:23:59;3.70;99.90
12682;DHT22;6405;59.208;18.216;2024-02-23T07:26:25;3.70;99.90
12682;DHT22;6405;59.208;18.216;2024-02-23T07:28:50;4.00;99.90
12682;DHT22;6405;59.208;18.216;2024-02-23T07:31:16;3.90;99.90
12682;DHT22;6405;59.208;18.216;2024-02-23T07:33:43;3.90;99.90
12682;DHT22;6405;59.208;18.216;2024-02-23T07:36:17;3.80;99.90
12682;DHT22;6405;59.208;18.216;2024-02-23T07:38:42;3.80;99.90
12682;DHT22;6405;59.208;18.216;2024-02-23T07:41:11;4.00;99.90
12682;DHT22;6405;59.208;18.216;2024-02-23T07:43:39;3.80;99.90
12682;DHT22;6405;59.208;18.216;2024-02-23T07:46:05;3.80;99.90
12682;DHT22;6405;59.208;18.216;2024-02-23T07:48:34;3.90;99.90
12682;DHT22;6405;59.208;18.216;2024-02-23T07:51:01;3.90;99.90
12682;DHT22;6405;59.208;18.216;2024-02-23T07:53:27;3.90;99.90
12682;DHT22;6405;59.208;18.216;2024-02-23T07:55:53;3.90;99.90
12682;DHT22;6405;59.208;18.216;2024-02-23T07:58:19;3.80;99.90
12682;DHT22;6405;59.208;18.216;2024-02-23T08:00:44;3.90;99.90
12682;DHT22;6405;59.208;18.216;2024-02-23T08:03:10;4.00;99.90
12682;DHT22;6405;59.208;18.216;2024-02-23T08:05:36;3.90;99.90
12682;DHT22;6405;59.208;18.216;2024-02-23T08:08:02;3.90;99.90
12682;DHT22;6405;59.208;18.216;2024-02-23T08:10:28;4.00;99.90
12682;DHT22;6405;59.208;18.216;2024-02-23T08:12:54;4.00;99.90
12682;DHT22;6405;59.208;18.216;2024-02-23T08:15:19;4.00;99.90
12682;DHT22;6405;59.208;18.216;2024-02-23T08:17:45;4.30;99.90
12682;DHT22;6405;59.208;18.216;2024-02-23T08:20:11;4.00;99.90
12682;DHT22;6405;59.208;18.216;2024-02-23T08:22:37;4.00;99.90
12682;DHT22;6405;59.208;18.216;2024-02-23T08:25:03;4.00;99.90
12682;DHT22;6405;59.208;18.216;2024-02-23T08:27:30;4.00;99.90
12682;DHT22;6405;59.208;18.216;2024-02-23T08:29:55;4.20;99.90
12682;DHT22;6405;59.208;18.216;2024-02-23T08:32:21;4.10;99.90
12682;DHT22;6405;59.208;18.216;2024-02-23T08:34:47;4.10;99.90
12682;DHT22;6405;59.208;18.216;2024-02-23T08:37:12;4.00;99.90
12682;DHT22;6405;59.208;18.216;2024-02-23T08:39:38;4.00;99.90
12682;DHT22;6405;59.208;18.216;2024-02-23T08:42:04;4.00;99.90
12682;DHT22;6405;59.208;18.216;2024-02-23T08:44:30;4.00;99.90
12682;DHT22;6405;59.208;18.216;2024-02-23T08:46:55;4.20;99.90
12682;DHT22;6405;59.208;18.216;2024-02-23T08:49:21;4.00;99.90
12682;DHT22;6405;59.208;18.216;2024-02-23T08:51:47;4.10;99.90
12682;DHT22;6405;59.208;18.216;2024-02-23T08:54:13;4.20;99.90
12682;DHT22;6405;59.208;18.216;2024-02-23T08:56:39;4.20;99.90
12682;DHT22;6405;59.208;18.216;2024-02-23T08:59:08;4.10;99.90
12682;DHT22;6405;59.208;18.216;2024-02-23T09:01:34;4.10;99.90
12682;DHT22;6405;59.208;18.216;2024-02-23T09:04:00;4.10;99.90
12682;DHT22;6405;59.208;18.216;2024-02-23T09:06:26;4.10;99.90
12682;DHT22;6405;59.208;18.216;2024-02-23T09:08:51;4.10;99.90
12682;DHT22;6405;59.208;18.216;2024-02-23T09:11:17;4.10;99.90
12682;DHT22;6405;59.208;18.216;2024-02-23T09:13:43;4.20;99.90
12682;DHT22;6405;59.208;18.216;2024-02-23T09:16:08;4.20;99.90
12682;DHT22;6405;59.208;18.216;2024-02-23T09:18:35;4.20;99.90
12682;DHT22;6405;59.208;18.216;2024-02-23T09:21:00;4.20;99.90
12682;DHT22;6405;59.208;18.216;2024-02-23T09:23:26;4.30;99.90
12682;DHT22;6405;59.208;18.216;2024-02-23T09:25:52;4.30;99.90
12682;DHT22;6405;59.208;18.216;2024-02-23T09:28:18;4.40;99.90
12682;DHT22;6405;59.208;18.216;2024-02-23T09:30:43;4.40;99.90
12682;DHT22;6405;59.208;18.216;2024-02-23T09:33:09;4.50;99.90
12682;DHT22;6405;59.208;18.216;2024-02-23T09:35:35;4.50;99.90
12682;DHT22;6405;59.208;18.216;2024-02-23T09:38:01;4.60;99.90
12682;DHT22;6405;59.208;18.216;2024-02-23T09:40:26;4.60;99.90
12682;DHT22;6405;59.208;18.216;2024-02-23T09:42:56;4.60;99.90
12682;DHT22;6405;59.208;18.216;2024-02-23T09:45:25;4.70;99.90
12682;DHT22;6405;59.208;18.216;2024-02-23T09:47:56;4.70;99.90
12682;DHT22;6405;59.208;18.216;2024-02-23T09:50:25;4.80;99.90
12682;DHT22;6405;59.208;18.216;2024-02-23T09:52:52;4.70;99.90
12682;DHT22;6405;59.208;18.216;2024-02-23T09:55:22;4.70;99.90
12682;DHT22;6405;59.208;18.216;2024-02-23T09:57:51;4.70;99.90
12682;DHT22;6405;59.208;18.216;2024-02-23T10:00:23;4.70;99.90
12682;DHT22;6405;59.208;18.216;2024-02-23T10:02:49;4.70;99.90
12682;DHT22;6405;59.208;18.216;2024-02-23T10:05:16;4.80;99.90
12682;DHT22;6405;59.208;18.216;2024-02-23T10:07:42;4.80;99.90
12682;DHT22;6405;59.208;18.216;2024-02-23T10:10:10;4.80;99.90
12682;DHT22;6405;59.208;18.216;2024-02-23T10:12:37;4.80;99.90
12682;DHT22;6405;59.208;18.216;2024-02-23T10:15:03;4.80;99.90
12682;DHT22;6405;59.208;18.216;2024-02-23T10:17:32;4.90;99.90
12682;DHT22;6405;59.208;18.216;2024-02-23T10:20:01;4.90;99.90
12682;DHT22;6405;59.208;18.216;2024-02-23T10:22:30;4.90;99.90
12682;DHT22;6405;59.208;18.216;2024-02-23T10:24:56;4.90;99.90
12682;DHT22;6405;59.208;18.216;2024-02-23T10:27:23;4.80;99.90
12682;DHT22;6405;59.208;18.216;2024-02-23T10:29:52;4.80;99.90
12682;DHT22;6405;59.208;18.216;2024-02-23T10:32:18;4.70;99.90
12682;DHT22;6405;59.208;18.216;2024-02-23T10:34:47;4.70;99.90
12682;DHT22;6405;59.208;18.216;2024-02-23T10:37:13;4.70;99.90
12682;DHT22;6405;59.208;18.216;2024-02-23T10:39:39;4.70;99.90
12682;DHT22;6405;59.208;18.216;2024-02-23T10:42:08;4.70;99.90
12682;DHT22;6405;59.208;18.216;2024-02-23T10:44:34;4.70;99.90
12682;DHT22;6405;59.208;18.216;2024-02-23T10:47:01;4.80;99.90
12682;DHT22;6405;59.208;18.216;2024-02-23T10:49:28;4.70;99.90
12682;DHT22;6405;59.208;18.216;2024-02-23T10:51:55;4.80;99.90
12682;DHT22;6405;59.208;18.216;2024-02-23T10:54:22;4.80;99.90
12682;DHT22;6405;59.208;18.216;2024-02-23T10:56:50;4.90;99.90
12682;DHT22;6405;59.208;18.216;2024-02-23T10:59:17;4.90;99.90
12682;DHT22;6405;59.208;18.216;2024-02-23T11:01:51;5.00;99.90
12682;DHT22;6405;59.208;18.216;2024-02-23T11:04:20;5.00;99.90
12682;DHT22;6405;59.208;18.216;2024-02-23T11:06:54;5.00;99.90
12682;DHT22;6405;59.208;18.216;2024-02-23T11:09:24;5.00;99.90
12682;DHT22;6405;59.208;18.216;2024-02-23T11:11:57;5.10;99.90
12682;DHT22;6405;59.208;18.216;2024-02-23T11:14:31;5.10;99.90
12682;DHT22;6405;59.208;18.216;2024-02-23T11:16:58;5.10;99.90
12682;DHT22;6405;59.208;18.216;2024-02-23T11:19:39;5.10;99.90
12682;DHT22;6405;59.208;18.216;2024-02-23T11:22:05;5.20;99.90
12682;DHT22;6405;59.208;18.216;2024-02-23T11:24:34;5.30;99.90
12682;DHT22;6405;59.208;18.216;2024-02-23T11:27:01;5.30;99.90
12682;DHT22;6405;59.208;18.216;2024-02-23T11:29:33;5.30;99.90
12682;DHT22;6405;59.208;18.216;2024-02-23T11:32:00;5.40;99.90
12682;DHT22;6405;59.208;18.216;2024-02-23T11:34:29;5.40;99.90
12682;DHT22;6405;59.208;18.216;2024-02-23T11:36:56;5.40;99.90
12682;DHT22;6405;59.208;18.216;2024-02-23T11:39:23;5.40;99.90
12682;DHT22;6405;59.208;18.216;2024-02-23T11:41:50;5.40;99.90
12682;DHT22;6405;59.208;18.216;2024-02-23T11:44:16;5.40;99.90
12682;DHT22;6405;59.208;18.216;2024-02-23T11:46:44;5.40;99.90
12682;DHT22;6405;59.208;18.216;2024-02-23T11:49:12;5.50;99.90
12682;DHT22;6405;59.208;18.216;2024-02-23T11:51:38;5.50;99.90
12682;DHT22;6405;59.208;18.216;2024-02-23T11:54:03;5.50;99.90
12682;DHT22;6405;59.208;18.216;2024-02-23T11:56:30;5.60;99.90
12682;DHT22;6405;59.208;18.216;2024-02-23T11:58:56;5.60;99.90
12682;DHT22;6405;59.208;18.216;2024-02-23T12:01:22;5.50;99.90
12682;DHT22;6405;59.208;18.216;2024-02-23T12:03:47;5.50;99.90
12682;DHT22;6405;59.208;18.216;2024-02-23T12:06:14;5.60;99.90
12682;DHT22;6405;59.208;18.216;2024-02-23T12:08:43;5.60;99.90
12682;DHT22;6405;59.208;18.216;2024-02-23T12:11:11;5.60;99.90
12682;DHT22;6405;59.208;18.216;2024-02-23T12:13:38;5.50;99.90
12682;DHT22;6405;59.208;18.216;2024-02-23T12:16:04;5.60;99.90
12682;DHT22;6405;59.208;18.216;2024-02-23T12:18:33;5.60;99.90
12682;DHT22;6405;59.208;18.216;2024-02-23T12:21:05;5.50;99.90
12682;DHT22;6405;59.208;18.216;2024-02-23T12:23:42;5.60;99.90
12682;DHT22;6405;59.208;18.216;2024-02-23T12:26:08;5.60;99.90
12682;DHT22;6405;59.208;18.216;2024-02-23T12:28:34;5.60;99.90
12682;DHT22;6405;59.208;18.216;2024-02-23T12:31:01;5.60;99.90
12682;DHT22;6405;59.208;18.216;2024-02-23T12:33:31;5.60;99.90
12682;DHT22;6405;59.208;18.216;2024-02-23T12:35:58;5.60;99.90
12682;DHT22;6405;59.208;18.216;2024-02-23T12:38:25;5.60;99.90
12682;DHT22;6405;59.208;18.216;2024-02-23T12:40:51;5.60;99.90
12682;DHT22;6405;59.208;18.216;2024-02-23T12:43:17;5.60;99.90
12682;DHT22;6405;59.208;18.216;2024-02-23T12:45:44;5.60;99.90
12682;DHT22;6405;59.208;18.216;2024-02-23T12:48:11;5.60;99.90
12682;DHT22;6405;59.208;18.216;2024-02-23T12:50:36;5.50;99.90
12682;DHT22;6405;59.208;18.216;2024-02-23T12:53:02;5.50;99.90
12682;DHT22;6405;59.208;18.216;2024-02-23T12:55:29;5.50;99.90
12682;DHT22;6405;59.208;18.216;2024-02-23T12:57:55;5.50;99.90
12682;DHT22;6405;59.208;18.216;2024-02-23T13:00:20;5.50;99.90
12682;DHT22;6405;59.208;18.216;2024-02-23T13:02:46;5.50;99.90
12682;DHT22;6405;59.208;18.216;2024-02-23T13:05:12;5.50;99.90
12682;DHT22;6405;59.208;18.216;2024-02-23T13:07:38;5.50;99.90
12682;DHT22;6405;59.208;18.216;2024-02-23T13:10:06;5.50;99.90
12682;DHT22;6405;59.208;18.216;2024-02-23T13:12:32;5.40;99.90
12682;DHT22;6405;59.208;18.216;2024-02-23T13:14:58;5.40;99.90
12682;DHT22;6405;59.208;18.216;2024-02-23T13:17:24;5.30;99.90
12682;DHT22;6405;59.208;18.216;2024-02-23T13:19:50;5.30;99.90
12682;DHT22;6405;59.208;18.216;2024-02-23T13:22:15;5.20;99.90
12682;DHT22;6405;59.208;18.216;2024-02-23T13:24:41;5.10;99.90
12682;DHT22;6405;59.208;18.216;2024-02-23T13:27:06;5.10;99.90
12682;DHT22;6405;59.208;18.216;2024-02-23T13:29:32;5.00;99.90
12682;DHT22;6405;59.208;18.216;2024-02-23T13:31:58;4.90;99.90
12682;DHT22;6405;59.208;18.216;2024-02-23T13:34:23;4.90;99.90
12682;DHT22;6405;59.208;18.216;2024-02-23T13:36:49;4.80;99.90
12682;DHT22;6405;59.208;18.216;2024-02-23T13:39:17;4.80;99.90
12682;DHT22;6405;59.208;18.216;2024-02-23T13:41:43;4.70;99.90
12682;DHT22;6405;59.208;18.216;2024-02-23T13:44:09;4.70;99.90
12682;DHT22;6405;59.208;18.216;2024-02-23T13:46:38;4.60;99.90
12682;DHT22;6405;59.208;18.216;2024-02-23T13:49:06;4.50;99.90
12682;DHT22;6405;59.208;18.216;2024-02-23T13:51:33;4.50;99.90
12682;DHT22;6405;59.208;18.216;2024-02-23T13:53:59;4.50;99.90
12682;DHT22;6405;59.208;18.216;2024-02-23T13:56:25;4.40;99.90
12682;DHT22;6405;59.208;18.216;2024-02-23T13:58:50;4.40;99.90
12682;DHT22;6405;59.208;18.216;2024-02-23T14:01:16;4.50;99.90
12682;DHT22;6405;59.208;18.216;2024-02-23T14:03:42;4.50;99.90
12682;DHT22;6405;59.208;18.216;2024-02-23T14:06:08;4.50;99.90
12682;DHT22;6405;59.208;18.216;2024-02-23T14:08:35;4.50;99.90
12682;DHT22;6405;59.208;18.216;2024-02-23T14:11:03;4.50;99.90
12682;DHT22;6405;59.208;18.216;2024-02-23T14:13:31;4.50;99.90
12682;DHT22;6405;59.208;18.216;2024-02-23T14:15:58;4.70;99.90
12682;DHT22;6405;59.208;18.216;2024-02-23T14:18:24;4.80;99.90
12682;DHT22;6405;59.208;18.216;2024-02-23T14:20:49;4.90;99.90
12682;DHT22;6405;59.208;18.216;2024-02-23T14:23:17;4.90;99.90
12682;DHT22;6405;59.208;18.216;2024-02-23T14:25:43;5.00;99.90
12682;DHT22;6405;59.208;18.216;2024-02-23T14:28:09;4.90;99.90
12682;DHT22;6405;59.208;18.216;2024-02-23T14:30:35;5.00;99.90
12682;DHT22;6405;59.208;18.216;2024-02-23T14:33:01;5.00;99.90
12682;DHT22;6405;59.208;18.216;2024-02-23T14:35:27;4.90;99.90
12682;DHT22;6405;59.208;18.216;2024-02-23T14:37:52;4.80;99.90
12682;DHT22;6405;59.208;18.216;2024-02-23T14:40:18;4.80;99.90
12682;DHT22;6405;59.208;18.216;2024-02-23T14:42:44;4.70;99.90
12682;DHT22;6405;59.208;18.216;2024-02-23T14:45:09;4.60;99.90
12682;DHT22;6405;59.208;18.216;2024-02-23T14:47:37;4.60;99.90
12682;DHT22;6405;59.208;18.216;2024-02-23T14:50:03;4.60;99.90
12682;DHT22;6405;59.208;18.216;2024-02-23T14:52:29;4.50;99.90
12682;DHT22;6405;59.208;18.216;2024-02-23T14:54:55;4.40;99.90
12682;DHT22;6405;59.208;18.216;2024-02-23T14:57:21;4.40;99.90
12682;DHT22;6405;59.208;18.216;2024-02-23T14:59:47;4.40;99.90
12682;DHT22;6405;59.208;18.216;2024-02-23T15:02:19;4.30;99.90
12682;DHT22;6405;59.208;18.216;2024-02-23T15:04:45;4.20;99.90
12682;DHT22;6405;59.208;18.216;2024-02-23T15:07:11;4.20;99.90
12682;DHT22;6405;59.208;18.216;2024-02-23T15:09:36;4.10;99.90
12682;DHT22;6405;59.208;18.216;2024-02-23T15:12:02;4.00;99.90
12682;DHT22;6405;59.208;18.216;2024-02-23T15:14:28;3.90;99.90
12682;DHT22;6405;59.208;18.216;2024-02-23T15:16:54;3.90;99.90
12682;DHT22;6405;59.208;18.216;2024-02-23T15:19:20;3.90;99.90
12682;DHT22;6405;59.208;18.216;2024-02-23T15:21:48;3.80;99.90
12682;DHT22;6405;59.208;18.216;2024-02-23T15:24:14;3.70;99.90
12682;DHT22;6405;59.208;18.216;2024-02-23T15:26:43;3.70;99.90
12682;DHT22;6405;59.208;18.216;2024-02-23T15:29:09;3.60;99.90
12682;DHT22;6405;59.208;18.216;2024-02-23T15:31:35;3.50;99.90
12682;DHT22;6405;59.208;18.216;2024-02-23T15:34:01;3.40;99.90
12682;DHT22;6405;59.208;18.216;2024-02-23T15:36:27;3.40;99.90
12682;DHT22;6405;59.208;18.216;2024-02-23T15:38:53;3.30;99.90
12682;DHT22;6405;59.208;18.216;2024-02-23T15:41:24;3.20;99.90